Pagrindinis puslapis
METAR-TAF:

METAR-TAF

Oro uostai :

Rafha, Saudo Arabija

platuma: 29-37N, ilguma: 043-29E, Aukštis: 449 m

Dabartinis oras

Ataskaita buvo paskelbta 38 minutes, ne 00:00 UTC
Vėjas 5 kt iš Pietų
Temperatūra 23°C
Drėgmė 25%
Slėgis 1015 hPa
Matomumas 10 km arba daugiau
nėra debesų žemiau 1500 m ir nėra kamuolinių lietaus debesų

METAR: OERF 190000Z 17005KT CAVOK 23/02 Q1015

Laikas: 03:38 (00:38 UTC)

Prognozė

Ataskaita buvo paskelbta 1 valandą ir 38 minutes, ne 23:00 UTC
Prognozė galioja nuo 19 metu 00 UTC su 20 metu 06 UTC
Vėjas 5 kt iš Pietų/Pietvakarių su gūsio iki 15 kt
Matomumas: 7000 m
Mažai debesys ne aukštis 4000 ft

TAF: OERF 182300Z 1900/2006 20005G15KT 7000 FEW040

Orai ataskaitas ir orų prognozės (METAR, TAF).

turimą stotys yra geltonos ir raudonos taškus žemėlapyje.

Perkelti pele per norėdami pamatyti stoties vardą.

Tada spustelėkite, norėdami matyti oro stebėjimo ir prognozės.

Norėdami pakeisti žemėlapį: spustelėkite ant žalios mygtukų su juodo kryžiaus žemyn,; žalią mygtuką su brūkšneliu, jei norite nutolinti; arba žalių rodyklių gretimoms žemėlapius.


METAR-TAF: